sensor_id;sensor_type;location;lat;lon;timestamp;temperature;humidity
2935;DHT22;2462;51.456;7.248;2023-01-08T00:01:02;13.50;99.90
2935;DHT22;2462;51.456;7.248;2023-01-08T00:03:28;13.50;99.90
2935;DHT22;2462;51.456;7.248;2023-01-08T00:05:53;13.50;99.90
2935;DHT22;2462;51.456;7.248;2023-01-08T00:08:19;13.50;99.90
2935;DHT22;2462;51.456;7.248;2023-01-08T00:10:44;13.50;99.90
2935;DHT22;2462;51.456;7.248;2023-01-08T00:13:10;13.50;99.90
2935;DHT22;2462;51.456;7.248;2023-01-08T00:15:35;13.50;99.90
2935;DHT22;2462;51.456;7.248;2023-01-08T00:18:01;13.50;99.90
2935;DHT22;2462;51.456;7.248;2023-01-08T00:20:27;13.50;99.90
2935;DHT22;2462;51.456;7.248;2023-01-08T00:22:53;13.50;99.90
2935;DHT22;2462;51.456;7.248;2023-01-08T00:25:19;13.50;99.90
2935;DHT22;2462;51.456;7.248;2023-01-08T00:27:45;13.50;99.90
2935;DHT22;2462;51.456;7.248;2023-01-08T00:30:11;13.50;99.90
2935;DHT22;2462;51.456;7.248;2023-01-08T00:32:37;13.50;99.90
2935;DHT22;2462;51.456;7.248;2023-01-08T00:35:03;13.50;99.90
2935;DHT22;2462;51.456;7.248;2023-01-08T00:37:29;13.60;99.90
2935;DHT22;2462;51.456;7.248;2023-01-08T00:39:55;13.60;99.90
2935;DHT22;2462;51.456;7.248;2023-01-08T00:42:20;13.60;99.90
2935;DHT22;2462;51.456;7.248;2023-01-08T00:44:46;13.60;99.90
2935;DHT22;2462;51.456;7.248;2023-01-08T00:47:11;13.50;99.90
2935;DHT22;2462;51.456;7.248;2023-01-08T00:49:37;13.50;99.90
2935;DHT22;2462;51.456;7.248;2023-01-08T00:52:03;13.50;99.90
2935;DHT22;2462;51.456;7.248;2023-01-08T00:54:29;13.50;99.90
2935;DHT22;2462;51.456;7.248;2023-01-08T00:56:55;13.60;99.90
2935;DHT22;2462;51.456;7.248;2023-01-08T00:59:20;13.50;99.90
2935;DHT22;2462;51.456;7.248;2023-01-08T01:01:46;13.50;99.90
2935;DHT22;2462;51.456;7.248;2023-01-08T01:04:12;13.50;99.90
2935;DHT22;2462;51.456;7.248;2023-01-08T01:06:41;13.50;99.90
2935;DHT22;2462;51.456;7.248;2023-01-08T01:09:07;13.50;99.90
2935;DHT22;2462;51.456;7.248;2023-01-08T01:11:32;13.50;99.90
2935;DHT22;2462;51.456;7.248;2023-01-08T01:13:58;13.50;99.90
2935;DHT22;2462;51.456;7.248;2023-01-08T01:16:24;13.60;99.90
2935;DHT22;2462;51.456;7.248;2023-01-08T01:18:50;13.50;99.90
2935;DHT22;2462;51.456;7.248;2023-01-08T01:21:23;13.50;99.90
2935;DHT22;2462;51.456;7.248;2023-01-08T01:23:52;13.50;99.90
2935;DHT22;2462;51.456;7.248;2023-01-08T01:26:20;13.60;99.90
2935;DHT22;2462;51.456;7.248;2023-01-08T01:28:47;13.60;99.90
2935;DHT22;2462;51.456;7.248;2023-01-08T01:31:13;13.60;99.90
2935;DHT22;2462;51.456;7.248;2023-01-08T01:33:40;13.50;99.90
2935;DHT22;2462;51.456;7.248;2023-01-08T01:36:06;13.50;99.90
2935;DHT22;2462;51.456;7.248;2023-01-08T01:38:32;13.60;99.90
2935;DHT22;2462;51.456;7.248;2023-01-08T01:40:58;13.60;99.90
2935;DHT22;2462;51.456;7.248;2023-01-08T01:43:38;13.50;99.90
2935;DHT22;2462;51.456;7.248;2023-01-08T01:46:14;13.50;99.90
2935;DHT22;2462;51.456;7.248;2023-01-08T01:48:40;13.50;99.90
2935;DHT22;2462;51.456;7.248;2023-01-08T01:51:06;13.50;99.90
2935;DHT22;2462;51.456;7.248;2023-01-08T01:53:33;13.50;99.90
2935;DHT22;2462;51.456;7.248;2023-01-08T01:56:00;13.60;99.90
2935;DHT22;2462;51.456;7.248;2023-01-08T01:58:29;13.60;99.90
2935;DHT22;2462;51.456;7.248;2023-01-08T02:00:57;13.60;99.90
2935;DHT22;2462;51.456;7.248;2023-01-08T02:03:25;13.50;99.90
2935;DHT22;2462;51.456;7.248;2023-01-08T02:08:55;13.60;99.90
2935;DHT22;2462;51.456;7.248;2023-01-08T02:11:26;13.60;99.90
2935;DHT22;2462;51.456;7.248;2023-01-08T02:13:59;13.50;99.90
2935;DHT22;2462;51.456;7.248;2023-01-08T02:19:41;13.50;99.90
2935;DHT22;2462;51.456;7.248;2023-01-08T02:25:10;13.50;99.90
2935;DHT22;2462;51.456;7.248;2023-01-08T02:27:37;13.50;99.90
2935;DHT22;2462;51.456;7.248;2023-01-08T02:30:05;13.50;99.90
2935;DHT22;2462;51.456;7.248;2023-01-08T02:32:39;13.50;99.90
2935;DHT22;2462;51.456;7.248;2023-01-08T02:35:08;13.50;99.90
2935;DHT22;2462;51.456;7.248;2023-01-08T02:37:35;13.50;99.90
2935;DHT22;2462;51.456;7.248;2023-01-08T02:42:46;13.50;99.90
2935;DHT22;2462;51.456;7.248;2023-01-08T02:45:30;13.50;99.90
2935;DHT22;2462;51.456;7.248;2023-01-08T02:48:14;13.50;99.90
2935;DHT22;2462;51.456;7.248;2023-01-08T02:53:22;13.50;99.90
2935;DHT22;2462;51.456;7.248;2023-01-08T02:55:54;13.50;99.90
2935;DHT22;2462;51.456;7.248;2023-01-08T02:58:22;13.50;99.90
2935;DHT22;2462;51.456;7.248;2023-01-08T03:00:49;13.50;99.90
2935;DHT22;2462;51.456;7.248;2023-01-08T03:03:20;13.50;99.90
2935;DHT22;2462;51.456;7.248;2023-01-08T03:06:03;13.50;99.90
2935;DHT22;2462;51.456;7.248;2023-01-08T03:08:37;13.40;99.90
2935;DHT22;2462;51.456;7.248;2023-01-08T03:11:05;13.40;99.90
2935;DHT22;2462;51.456;7.248;2023-01-08T03:13:38;13.40;99.90
2935;DHT22;2462;51.456;7.248;2023-01-08T03:16:11;13.40;99.90
2935;DHT22;2462;51.456;7.248;2023-01-08T03:18:48;13.40;99.90
2935;DHT22;2462;51.456;7.248;2023-01-08T03:21:17;13.40;99.90
2935;DHT22;2462;51.456;7.248;2023-01-08T03:23:46;13.40;99.90
2935;DHT22;2462;51.456;7.248;2023-01-08T03:26:14;13.40;99.90
2935;DHT22;2462;51.456;7.248;2023-01-08T03:28:45;13.40;99.90
2935;DHT22;2462;51.456;7.248;2023-01-08T03:31:14;13.40;99.90
2935;DHT22;2462;51.456;7.248;2023-01-08T03:33:42;13.40;99.90
2935;DHT22;2462;51.456;7.248;2023-01-08T03:36:14;13.40;99.90
2935;DHT22;2462;51.456;7.248;2023-01-08T03:38:47;13.30;99.90
2935;DHT22;2462;51.456;7.248;2023-01-08T03:41:18;13.40;99.90
2935;DHT22;2462;51.456;7.248;2023-01-08T03:43:44;13.40;99.90
2935;DHT22;2462;51.456;7.248;2023-01-08T03:46:17;13.30;99.90
2935;DHT22;2462;51.456;7.248;2023-01-08T03:48:44;13.30;99.90
2935;DHT22;2462;51.456;7.248;2023-01-08T03:51:10;13.30;99.90
2935;DHT22;2462;51.456;7.248;2023-01-08T03:53:36;13.30;99.90
2935;DHT22;2462;51.456;7.248;2023-01-08T03:56:02;13.30;99.90
2935;DHT22;2462;51.456;7.248;2023-01-08T03:58:27;13.30;99.90
2935;DHT22;2462;51.456;7.248;2023-01-08T04:00:53;13.30;99.90
2935;DHT22;2462;51.456;7.248;2023-01-08T04:03:18;13.30;99.90
2935;DHT22;2462;51.456;7.248;2023-01-08T04:05:44;13.30;99.90
2935;DHT22;2462;51.456;7.248;2023-01-08T04:08:09;13.30;99.90
2935;DHT22;2462;51.456;7.248;2023-01-08T04:10:35;13.30;99.90
2935;DHT22;2462;51.456;7.248;2023-01-08T04:13:00;13.30;99.90
2935;DHT22;2462;51.456;7.248;2023-01-08T04:15:26;13.20;99.90
2935;DHT22;2462;51.456;7.248;2023-01-08T04:17:52;13.20;99.90
2935;DHT22;2462;51.456;7.248;2023-01-08T04:20:18;13.30;99.90
2935;DHT22;2462;51.456;7.248;2023-01-08T04:22:43;13.20;99.90
2935;DHT22;2462;51.456;7.248;2023-01-08T04:25:09;13.20;99.90
2935;DHT22;2462;51.456;7.248;2023-01-08T04:27:35;13.20;99.90
2935;DHT22;2462;51.456;7.248;2023-01-08T04:30:00;13.20;99.90
2935;DHT22;2462;51.456;7.248;2023-01-08T04:32:26;13.20;99.90
2935;DHT22;2462;51.456;7.248;2023-01-08T04:34:51;13.20;99.90
2935;DHT22;2462;51.456;7.248;2023-01-08T04:37:17;13.20;99.90
2935;DHT22;2462;51.456;7.248;2023-01-08T04:39:42;13.20;99.90
2935;DHT22;2462;51.456;7.248;2023-01-08T04:42:08;13.20;99.90
2935;DHT22;2462;51.456;7.248;2023-01-08T04:44:33;13.20;99.90
2935;DHT22;2462;51.456;7.248;2023-01-08T04:46:59;13.20;99.90
2935;DHT22;2462;51.456;7.248;2023-01-08T04:49:24;13.20;99.90
2935;DHT22;2462;51.456;7.248;2023-01-08T04:51:50;13.20;99.90
2935;DHT22;2462;51.456;7.248;2023-01-08T04:54:15;13.20;99.90
2935;DHT22;2462;51.456;7.248;2023-01-08T04:56:41;13.20;99.90
2935;DHT22;2462;51.456;7.248;2023-01-08T04:59:06;13.20;99.90
2935;DHT22;2462;51.456;7.248;2023-01-08T05:01:32;13.20;99.90
2935;DHT22;2462;51.456;7.248;2023-01-08T05:04:03;13.20;99.90
2935;DHT22;2462;51.456;7.248;2023-01-08T05:06:30;13.20;99.90
2935;DHT22;2462;51.456;7.248;2023-01-08T05:08:57;13.20;99.90
2935;DHT22;2462;51.456;7.248;2023-01-08T05:11:23;13.20;99.90
2935;DHT22;2462;51.456;7.248;2023-01-08T05:13:50;13.20;99.90
2935;DHT22;2462;51.456;7.248;2023-01-08T05:16:16;13.20;99.90
2935;DHT22;2462;51.456;7.248;2023-01-08T05:18:42;13.20;99.90
2935;DHT22;2462;51.456;7.248;2023-01-08T05:21:08;13.20;99.90
2935;DHT22;2462;51.456;7.248;2023-01-08T05:23:34;13.20;99.90
2935;DHT22;2462;51.456;7.248;2023-01-08T05:26:01;13.20;99.90
2935;DHT22;2462;51.456;7.248;2023-01-08T05:28:27;13.20;99.90
2935;DHT22;2462;51.456;7.248;2023-01-08T05:30:53;13.20;99.90
2935;DHT22;2462;51.456;7.248;2023-01-08T05:33:19;13.20;99.90
2935;DHT22;2462;51.456;7.248;2023-01-08T05:35:45;13.20;99.90
2935;DHT22;2462;51.456;7.248;2023-01-08T05:38:10;13.20;99.90
2935;DHT22;2462;51.456;7.248;2023-01-08T05:40:36;13.20;99.90
2935;DHT22;2462;51.456;7.248;2023-01-08T05:43:02;13.20;99.90
2935;DHT22;2462;51.456;7.248;2023-01-08T05:45:29;13.20;99.90
2935;DHT22;2462;51.456;7.248;2023-01-08T05:47:55;13.20;99.90
2935;DHT22;2462;51.456;7.248;2023-01-08T05:50:20;13.20;99.90
2935;DHT22;2462;51.456;7.248;2023-01-08T05:52:46;13.10;99.90
2935;DHT22;2462;51.456;7.248;2023-01-08T05:55:11;13.10;99.90
2935;DHT22;2462;51.456;7.248;2023-01-08T05:57:37;13.10;99.90
2935;DHT22;2462;51.456;7.248;2023-01-08T06:00:04;13.10;99.90
2935;DHT22;2462;51.456;7.248;2023-01-08T06:02:30;13.10;99.90
2935;DHT22;2462;51.456;7.248;2023-01-08T06:04:55;13.10;99.90
2935;DHT22;2462;51.456;7.248;2023-01-08T06:07:21;13.10;99.90
2935;DHT22;2462;51.456;7.248;2023-01-08T06:09:46;13.10;99.90
2935;DHT22;2462;51.456;7.248;2023-01-08T06:12:11;13.10;99.90
2935;DHT22;2462;51.456;7.248;2023-01-08T06:14:37;13.10;99.90
2935;DHT22;2462;51.456;7.248;2023-01-08T06:17:02;13.10;99.90
2935;DHT22;2462;51.456;7.248;2023-01-08T06:19:28;13.10;99.90
2935;DHT22;2462;51.456;7.248;2023-01-08T06:21:53;13.10;99.90
2935;DHT22;2462;51.456;7.248;2023-01-08T06:24:19;13.10;99.90
2935;DHT22;2462;51.456;7.248;2023-01-08T06:26:44;13.10;99.90
2935;DHT22;2462;51.456;7.248;2023-01-08T06:29:10;13.10;99.90
2935;DHT22;2462;51.456;7.248;2023-01-08T06:31:35;13.10;99.90
2935;DHT22;2462;51.456;7.248;2023-01-08T06:34:01;13.10;99.90
2935;DHT22;2462;51.456;7.248;2023-01-08T06:36:27;13.10;99.90
2935;DHT22;2462;51.456;7.248;2023-01-08T06:38:52;13.10;99.90
2935;DHT22;2462;51.456;7.248;2023-01-08T06:41:20;13.10;99.90
2935;DHT22;2462;51.456;7.248;2023-01-08T06:43:45;13.10;99.90
2935;DHT22;2462;51.456;7.248;2023-01-08T06:46:11;13.10;99.90
2935;DHT22;2462;51.456;7.248;2023-01-08T06:48:37;13.10;99.90
2935;DHT22;2462;51.456;7.248;2023-01-08T06:51:03;13.10;99.90
2935;DHT22;2462;51.456;7.248;2023-01-08T06:53:29;13.10;99.90
2935;DHT22;2462;51.456;7.248;2023-01-08T06:55:55;13.10;99.90
2935;DHT22;2462;51.456;7.248;2023-01-08T06:58:23;13.10;99.90
2935;DHT22;2462;51.456;7.248;2023-01-08T07:00:49;13.10;99.90
2935;DHT22;2462;51.456;7.248;2023-01-08T07:03:15;13.10;99.90
2935;DHT22;2462;51.456;7.248;2023-01-08T07:05:40;13.10;99.90
2935;DHT22;2462;51.456;7.248;2023-01-08T07:08:10;13.10;99.90
2935;DHT22;2462;51.456;7.248;2023-01-08T07:10:36;13.10;99.90
2935;DHT22;2462;51.456;7.248;2023-01-08T07:13:01;13.10;99.90
2935;DHT22;2462;51.456;7.248;2023-01-08T07:15:27;13.10;99.90
2935;DHT22;2462;51.456;7.248;2023-01-08T07:17:52;13.10;99.90
2935;DHT22;2462;51.456;7.248;2023-01-08T07:20:18;13.10;99.90
2935;DHT22;2462;51.456;7.248;2023-01-08T07:22:43;13.10;99.90
2935;DHT22;2462;51.456;7.248;2023-01-08T07:25:09;13.10;99.90
2935;DHT22;2462;51.456;7.248;2023-01-08T07:27:34;13.10;99.90
2935;DHT22;2462;51.456;7.248;2023-01-08T07:30:00;13.10;99.90
2935;DHT22;2462;51.456;7.248;2023-01-08T07:32:25;13.10;99.90
2935;DHT22;2462;51.456;7.248;2023-01-08T07:34:51;13.10;99.90
2935;DHT22;2462;51.456;7.248;2023-01-08T07:37:18;13.10;99.90
2935;DHT22;2462;51.456;7.248;2023-01-08T07:39:44;13.10;99.90
2935;DHT22;2462;51.456;7.248;2023-01-08T07:42:10;13.10;99.90
2935;DHT22;2462;51.456;7.248;2023-01-08T07:44:35;13.20;99.90
2935;DHT22;2462;51.456;7.248;2023-01-08T07:47:01;13.10;99.90
2935;DHT22;2462;51.456;7.248;2023-01-08T07:49:26;13.10;99.90
2935;DHT22;2462;51.456;7.248;2023-01-08T07:51:52;13.10;99.90
2935;DHT22;2462;51.456;7.248;2023-01-08T07:54:17;13.10;99.90
2935;DHT22;2462;51.456;7.248;2023-01-08T07:56:43;13.10;99.90
2935;DHT22;2462;51.456;7.248;2023-01-08T07:59:08;13.10;99.90
2935;DHT22;2462;51.456;7.248;2023-01-08T08:01:34;13.10;99.90
2935;DHT22;2462;51.456;7.248;2023-01-08T08:03:59;13.10;99.90
2935;DHT22;2462;51.456;7.248;2023-01-08T08:06:25;13.10;99.90
2935;DHT22;2462;51.456;7.248;2023-01-08T08:08:50;13.00;99.90
2935;DHT22;2462;51.456;7.248;2023-01-08T08:11:16;13.10;99.90
2935;DHT22;2462;51.456;7.248;2023-01-08T08:13:41;13.20;99.90
2935;DHT22;2462;51.456;7.248;2023-01-08T08:16:10;13.20;99.90
2935;DHT22;2462;51.456;7.248;2023-01-08T08:18:36;13.20;99.90
2935;DHT22;2462;51.456;7.248;2023-01-08T08:21:01;13.20;99.90
2935;DHT22;2462;51.456;7.248;2023-01-08T08:23:28;13.20;99.90
2935;DHT22;2462;51.456;7.248;2023-01-08T08:25:53;13.20;99.90
2935;DHT22;2462;51.456;7.248;2023-01-08T08:28:19;13.20;99.90
2935;DHT22;2462;51.456;7.248;2023-01-08T08:30:45;13.20;99.90
2935;DHT22;2462;51.456;7.248;2023-01-08T08:33:10;13.20;99.90
2935;DHT22;2462;51.456;7.248;2023-01-08T08:35:36;13.20;99.90
2935;DHT22;2462;51.456;7.248;2023-01-08T08:38:02;13.20;99.90
2935;DHT22;2462;51.456;7.248;2023-01-08T08:40:28;13.20;99.90
2935;DHT22;2462;51.456;7.248;2023-01-08T08:42:55;13.20;99.90
2935;DHT22;2462;51.456;7.248;2023-01-08T08:45:21;13.20;99.90
2935;DHT22;2462;51.456;7.248;2023-01-08T08:47:47;13.20;99.90
2935;DHT22;2462;51.456;7.248;2023-01-08T08:50:12;13.20;99.90
2935;DHT22;2462;51.456;7.248;2023-01-08T08:52:37;13.20;99.90
2935;DHT22;2462;51.456;7.248;2023-01-08T08:55:03;13.20;99.90
2935;DHT22;2462;51.456;7.248;2023-01-08T08:57:30;13.20;99.90
2935;DHT22;2462;51.456;7.248;2023-01-08T08:59:55;13.20;99.90
2935;DHT22;2462;51.456;7.248;2023-01-08T09:02:21;13.20;99.90
2935;DHT22;2462;51.456;7.248;2023-01-08T09:04:46;13.20;99.90
2935;DHT22;2462;51.456;7.248;2023-01-08T09:07:12;13.20;99.90
2935;DHT22;2462;51.456;7.248;2023-01-08T09:09:37;13.20;99.90
2935;DHT22;2462;51.456;7.248;2023-01-08T09:12:03;13.20;99.90
2935;DHT22;2462;51.456;7.248;2023-01-08T09:14:29;13.20;99.90
2935;DHT22;2462;51.456;7.248;2023-01-08T09:16:54;13.20;99.90
2935;DHT22;2462;51.456;7.248;2023-01-08T09:19:20;13.20;99.90
2935;DHT22;2462;51.456;7.248;2023-01-08T09:21:47;13.20;99.90
2935;DHT22;2462;51.456;7.248;2023-01-08T09:24:13;13.10;99.90
2935;DHT22;2462;51.456;7.248;2023-01-08T09:26:38;13.10;99.90
2935;DHT22;2462;51.456;7.248;2023-01-08T09:29:04;13.10;99.90
2935;DHT22;2462;51.456;7.248;2023-01-08T09:31:29;13.10;99.90
2935;DHT22;2462;51.456;7.248;2023-01-08T09:33:55;13.10;99.90
2935;DHT22;2462;51.456;7.248;2023-01-08T09:36:20;13.10;99.90
2935;DHT22;2462;51.456;7.248;2023-01-08T09:38:46;13.10;99.90
2935;DHT22;2462;51.456;7.248;2023-01-08T09:41:20;13.10;99.90
2935;DHT22;2462;51.456;7.248;2023-01-08T09:43:49;13.10;99.90
2935;DHT22;2462;51.456;7.248;2023-01-08T09:46:18;13.10;99.90
2935;DHT22;2462;51.456;7.248;2023-01-08T09:48:46;13.10;99.90
2935;DHT22;2462;51.456;7.248;2023-01-08T09:51:13;13.00;99.90
2935;DHT22;2462;51.456;7.248;2023-01-08T09:53:40;13.00;99.90
2935;DHT22;2462;51.456;7.248;2023-01-08T09:56:13;13.00;99.90
2935;DHT22;2462;51.456;7.248;2023-01-08T09:58:45;13.00;99.90
2935;DHT22;2462;51.456;7.248;2023-01-08T10:01:20;13.00;99.90
2935;DHT22;2462;51.456;7.248;2023-01-08T10:06:30;13.10;99.90
2935;DHT22;2462;51.456;7.248;2023-01-08T10:08:56;13.10;99.90
2935;DHT22;2462;51.456;7.248;2023-01-08T10:11:24;13.10;99.90
2935;DHT22;2462;51.456;7.248;2023-01-08T10:13:55;13.10;99.90
2935;DHT22;2462;51.456;7.248;2023-01-08T10:16:29;13.20;99.90
2935;DHT22;2462;51.456;7.248;2023-01-08T10:18:56;13.20;99.90
2935;DHT22;2462;51.456;7.248;2023-01-08T10:21:28;13.20;99.90
2935;DHT22;2462;51.456;7.248;2023-01-08T10:23:55;13.20;99.90
2935;DHT22;2462;51.456;7.248;2023-01-08T10:26:25;13.30;99.90
2935;DHT22;2462;51.456;7.248;2023-01-08T10:28:51;13.30;99.90
2935;DHT22;2462;51.456;7.248;2023-01-08T10:31:16;13.40;99.90
2935;DHT22;2462;51.456;7.248;2023-01-08T10:33:46;13.40;99.90
2935;DHT22;2462;51.456;7.248;2023-01-08T10:36:14;13.50;99.90
2935;DHT22;2462;51.456;7.248;2023-01-08T10:38:48;13.50;99.90
2935;DHT22;2462;51.456;7.248;2023-01-08T10:41:15;13.60;99.90
2935;DHT22;2462;51.456;7.248;2023-01-08T10:43:52;13.60;99.90
2935;DHT22;2462;51.456;7.248;2023-01-08T10:46:30;13.60;99.90
2935;DHT22;2462;51.456;7.248;2023-01-08T10:49:00;13.50;99.90
2935;DHT22;2462;51.456;7.248;2023-01-08T10:51:28;13.50;99.90
2935;DHT22;2462;51.456;7.248;2023-01-08T10:53:57;13.50;99.90
2935;DHT22;2462;51.456;7.248;2023-01-08T10:58:49;13.50;99.90
2935;DHT22;2462;51.456;7.248;2023-01-08T11:01:19;13.60;99.90
2935;DHT22;2462;51.456;7.248;2023-01-08T11:03:56;13.60;99.90
2935;DHT22;2462;51.456;7.248;2023-01-08T11:06:25;13.60;99.90
2935;DHT22;2462;51.456;7.248;2023-01-08T11:11:44;13.60;99.90
2935;DHT22;2462;51.456;7.248;2023-01-08T11:16:47;13.60;99.90
2935;DHT22;2462;51.456;7.248;2023-01-08T11:19:18;13.60;99.90
2935;DHT22;2462;51.456;7.248;2023-01-08T11:21:55;13.60;99.90
2935;DHT22;2462;51.456;7.248;2023-01-08T11:24:29;13.60;99.90
2935;DHT22;2462;51.456;7.248;2023-01-08T11:37:35;13.80;99.90
2935;DHT22;2462;51.456;7.248;2023-01-08T11:40:01;13.90;99.90
2935;DHT22;2462;51.456;7.248;2023-01-08T11:42:46;14.00;99.90
2935;DHT22;2462;51.456;7.248;2023-01-08T11:53:41;14.20;99.90
2935;DHT22;2462;51.456;7.248;2023-01-08T11:56:45;14.20;99.90
2935;DHT22;2462;51.456;7.248;2023-01-08T12:07:20;14.50;99.90
2935;DHT22;2462;51.456;7.248;2023-01-08T12:10:00;14.50;99.90
2935;DHT22;2462;51.456;7.248;2023-01-08T12:15:19;14.70;99.90
2935;DHT22;2462;51.456;7.248;2023-01-08T12:18:04;14.80;99.90
2935;DHT22;2462;51.456;7.248;2023-01-08T12:20:39;14.80;99.90
2935;DHT22;2462;51.456;7.248;2023-01-08T12:25:49;14.90;99.90
2935;DHT22;2462;51.456;7.248;2023-01-08T12:28:26;15.00;99.90
2935;DHT22;2462;51.456;7.248;2023-01-08T12:34:09;15.10;99.90
2935;DHT22;2462;51.456;7.248;2023-01-08T12:36:40;15.10;99.90
2935;DHT22;2462;51.456;7.248;2023-01-08T12:41:48;15.20;99.90
2935;DHT22;2462;51.456;7.248;2023-01-08T12:44:22;15.20;99.90
2935;DHT22;2462;51.456;7.248;2023-01-08T12:46:50;15.20;99.90
2935;DHT22;2462;51.456;7.248;2023-01-08T12:49:29;15.20;99.90
2935;DHT22;2462;51.456;7.248;2023-01-08T12:52:04;15.20;99.90
2935;DHT22;2462;51.456;7.248;2023-01-08T12:54:42;15.20;99.90
2935;DHT22;2462;51.456;7.248;2023-01-08T12:57:24;15.10;99.90
2935;DHT22;2462;51.456;7.248;2023-01-08T13:00:26;15.10;99.90
2935;DHT22;2462;51.456;7.248;2023-01-08T13:02:55;15.10;99.90
2935;DHT22;2462;51.456;7.248;2023-01-08T13:07:51;15.00;99.90
2935;DHT22;2462;51.456;7.248;2023-01-08T13:10:39;15.00;99.90
2935;DHT22;2462;51.456;7.248;2023-01-08T13:13:06;15.00;99.90
2935;DHT22;2462;51.456;7.248;2023-01-08T13:15:33;14.90;99.90
2935;DHT22;2462;51.456;7.248;2023-01-08T13:18:19;14.90;99.90
2935;DHT22;2462;51.456;7.248;2023-01-08T13:21:00;15.00;99.90
2935;DHT22;2462;51.456;7.248;2023-01-08T13:23:28;15.00;99.90
2935;DHT22;2462;51.456;7.248;2023-01-08T13:25:57;14.90;99.90
2935;DHT22;2462;51.456;7.248;2023-01-08T13:28:41;14.90;99.90
2935;DHT22;2462;51.456;7.248;2023-01-08T13:33:46;14.90;99.90
2935;DHT22;2462;51.456;7.248;2023-01-08T13:36:26;14.90;99.90
2935;DHT22;2462;51.456;7.248;2023-01-08T13:44:12;14.80;99.90
2935;DHT22;2462;51.456;7.248;2023-01-08T13:46:38;14.80;99.90
2935;DHT22;2462;51.456;7.248;2023-01-08T13:49:05;14.80;99.90
2935;DHT22;2462;51.456;7.248;2023-01-08T13:51:40;14.80;99.90
2935;DHT22;2462;51.456;7.248;2023-01-08T13:56:44;14.70;99.90
2935;DHT22;2462;51.456;7.248;2023-01-08T13:59:28;14.70;99.90
2935;DHT22;2462;51.456;7.248;2023-01-08T14:01:55;14.60;99.90
2935;DHT22;2462;51.456;7.248;2023-01-08T14:04:23;14.60;99.90
2935;DHT22;2462;51.456;7.248;2023-01-08T14:06:48;14.60;99.90
2935;DHT22;2462;51.456;7.248;2023-01-08T14:09:24;14.60;99.90
2935;DHT22;2462;51.456;7.248;2023-01-08T14:11:53;14.50;99.90
2935;DHT22;2462;51.456;7.248;2023-01-08T14:14:21;14.50;99.90
2935;DHT22;2462;51.456;7.248;2023-01-08T14:16:49;14.50;99.90
2935;DHT22;2462;51.456;7.248;2023-01-08T14:19:19;14.40;99.90
2935;DHT22;2462;51.456;7.248;2023-01-08T14:21:56;14.40;99.90
2935;DHT22;2462;51.456;7.248;2023-01-08T14:24:23;14.40;99.90
2935;DHT22;2462;51.456;7.248;2023-01-08T14:26:57;14.40;99.90
2935;DHT22;2462;51.456;7.248;2023-01-08T14:29:28;14.30;99.90
2935;DHT22;2462;51.456;7.248;2023-01-08T14:31:57;14.30;99.90
2935;DHT22;2462;51.456;7.248;2023-01-08T14:34:28;14.30;99.90
2935;DHT22;2462;51.456;7.248;2023-01-08T14:36:55;14.30;99.90
2935;DHT22;2462;51.456;7.248;2023-01-08T14:39:23;14.20;99.90
2935;DHT22;2462;51.456;7.248;2023-01-08T14:41:49;14.20;99.90
2935;DHT22;2462;51.456;7.248;2023-01-08T14:44:36;14.20;99.90
2935;DHT22;2462;51.456;7.248;2023-01-08T14:47:01;14.10;99.90
2935;DHT22;2462;51.456;7.248;2023-01-08T14:49:31;14.10;99.90
2935;DHT22;2462;51.456;7.248;2023-01-08T14:51:58;14.10;99.90
2935;DHT22;2462;51.456;7.248;2023-01-08T14:54:31;14.00;99.90
2935;DHT22;2462;51.456;7.248;2023-01-08T14:56:58;14.00;99.90
2935;DHT22;2462;51.456;7.248;2023-01-08T14:59:27;13.90;99.90
2935;DHT22;2462;51.456;7.248;2023-01-08T15:01:56;13.90;99.90
2935;DHT22;2462;51.456;7.248;2023-01-08T15:04:23;13.80;99.90
2935;DHT22;2462;51.456;7.248;2023-01-08T15:06:50;13.80;99.90
2935;DHT22;2462;51.456;7.248;2023-01-08T15:09:23;13.80;99.90
2935;DHT22;2462;51.456;7.248;2023-01-08T15:11:52;13.80;99.90
2935;DHT22;2462;51.456;7.248;2023-01-08T15:14:22;13.70;99.90
2935;DHT22;2462;51.456;7.248;2023-01-08T15:16:50;13.70;99.90
2935;DHT22;2462;51.456;7.248;2023-01-08T15:19:22;13.70;99.90
2935;DHT22;2462;51.456;7.248;2023-01-08T15:21:51;13.70;99.90
2935;DHT22;2462;51.456;7.248;2023-01-08T15:24:22;13.60;99.90
2935;DHT22;2462;51.456;7.248;2023-01-08T15:26:49;13.60;99.90
2935;DHT22;2462;51.456;7.248;2023-01-08T15:29:22;13.60;99.90
2935;DHT22;2462;51.456;7.248;2023-01-08T15:31:50;13.60;99.90
2935;DHT22;2462;51.456;7.248;2023-01-08T15:34:19;13.60;99.90
2935;DHT22;2462;51.456;7.248;2023-01-08T15:36:45;13.50;99.90
2935;DHT22;2462;51.456;7.248;2023-01-08T15:39:11;13.50;99.90
2935;DHT22;2462;51.456;7.248;2023-01-08T15:41:38;13.50;99.90
2935;DHT22;2462;51.456;7.248;2023-01-08T15:44:24;13.50;99.90
2935;DHT22;2462;51.456;7.248;2023-01-08T15:46:51;13.50;99.90
2935;DHT22;2462;51.456;7.248;2023-01-08T15:49:17;13.40;99.90
2935;DHT22;2462;51.456;7.248;2023-01-08T15:51:45;13.40;99.90
2935;DHT22;2462;51.456;7.248;2023-01-08T15:54:12;13.40;99.90
2935;DHT22;2462;51.456;7.248;2023-01-08T15:56:38;13.40;99.90
2935;DHT22;2462;51.456;7.248;2023-01-08T15:59:04;13.40;99.90
2935;DHT22;2462;51.456;7.248;2023-01-08T16:01:31;13.40;99.90
2935;DHT22;2462;51.456;7.248;2023-01-08T16:03:57;13.30;99.90
2935;DHT22;2462;51.456;7.248;2023-01-08T16:06:23;13.30;99.90
2935;DHT22;2462;51.456;7.248;2023-01-08T16:08:49;13.30;99.90
2935;DHT22;2462;51.456;7.248;2023-01-08T16:11:16;13.30;99.90
2935;DHT22;2462;51.456;7.248;2023-01-08T16:13:42;13.30;99.90
2935;DHT22;2462;51.456;7.248;2023-01-08T16:16:12;13.30;99.90
2935;DHT22;2462;51.456;7.248;2023-01-08T16:18:39;13.30;99.90
2935;DHT22;2462;51.456;7.248;2023-01-08T16:21:06;13.30;99.90
2935;DHT22;2462;51.456;7.248;2023-01-08T16:23:33;13.30;99.90
2935;DHT22;2462;51.456;7.248;2023-01-08T16:26:04;13.20;99.90
2935;DHT22;2462;51.456;7.248;2023-01-08T16:28:29;13.20;99.90
2935;DHT22;2462;51.456;7.248;2023-01-08T16:30:55;13.20;99.90
2935;DHT22;2462;51.456;7.248;2023-01-08T16:33:21;13.20;99.90
2935;DHT22;2462;51.456;7.248;2023-01-08T16:35:58;13.20;99.90
2935;DHT22;2462;51.456;7.248;2023-01-08T16:38:24;13.20;99.90
2935;DHT22;2462;51.456;7.248;2023-01-08T16:40:50;13.20;99.90
2935;DHT22;2462;51.456;7.248;2023-01-08T16:43:16;13.20;99.90
2935;DHT22;2462;51.456;7.248;2023-01-08T16:45:47;13.20;99.90
2935;DHT22;2462;51.456;7.248;2023-01-08T16:48:13;13.20;99.90
2935;DHT22;2462;51.456;7.248;2023-01-08T16:50:40;13.20;99.90
2935;DHT22;2462;51.456;7.248;2023-01-08T16:53:06;13.20;99.90
2935;DHT22;2462;51.456;7.248;2023-01-08T16:55:31;13.20;99.90
2935;DHT22;2462;51.456;7.248;2023-01-08T16:57:57;13.20;99.90
2935;DHT22;2462;51.456;7.248;2023-01-08T17:00:22;13.20;99.90
2935;DHT22;2462;51.456;7.248;2023-01-08T17:02:48;13.20;99.90
2935;DHT22;2462;51.456;7.248;2023-01-08T17:05:14;13.20;99.90
2935;DHT22;2462;51.456;7.248;2023-01-08T17:07:41;13.20;99.90
2935;DHT22;2462;51.456;7.248;2023-01-08T17:10:07;13.10;99.90
2935;DHT22;2462;51.456;7.248;2023-01-08T17:12:32;13.10;99.90
2935;DHT22;2462;51.456;7.248;2023-01-08T17:14:58;13.10;99.90
2935;DHT22;2462;51.456;7.248;2023-01-08T17:17:23;13.10;99.90
2935;DHT22;2462;51.456;7.248;2023-01-08T17:19:49;13.10;99.90
2935;DHT22;2462;51.456;7.248;2023-01-08T17:22:14;13.10;99.90
2935;DHT22;2462;51.456;7.248;2023-01-08T17:24:40;13.10;99.90